CheckWX is a tool to help pilots better visualize weather data.  It is not intended as a substitute for an official pre-flight weather briefing.

07:58:36 UTC

FMEE TAF
Roland Garros Airport
St Denis, Reunion
FMEE 200500Z 2006/2112 14020KT 9999 FEW026 SCT045 PROB30 TEMPO 2006/2024 4500 SHRA TEMPO 2006/2112 12030G40KT

Jun-20@
06:00 UTC

Jun-20 @ 06:00 UTC

Jun-21@
12:00 UTC

Jun-21 @ 12:00 UTC

FMEE 200500Z 2006/2112 14020KT 9999 FEW026 SCT045
Wind
  • 140° at 20 KTS
Cloud Levels
  • Few at 2,600' AGL
  • Scattered at 4,500' AGL

Jun-20@
06:00 UTC

Jun-20 @ 06:00 UTC

Jun-21@
00:00 UTC

Jun-21 @ 00:00 UTC

PROB30 TEMPO 2006/2024 4500 SHRA

Temporary - 30% Likelihood

Temporary - 30% Likelihood during this time.

Conditions
Rain

Jun-20@
06:00 UTC

Jun-20 @ 06:00 UTC

Jun-21@
12:00 UTC

Jun-21 @ 12:00 UTC

TEMPO 2006/2112 12030G40KT

Temporary

Temporary Changes expected for less than half the time period

Wind
  • 120° at 30 KTS
  • {Gusting to 40 KTS